Stations météo

réclame
Mon MeteoGroup
Leuchtturm Alte Weser, Allemagne (10124): Température de l'air & dewpoint: 16.10.2018 16:00:00 - 22.10.2018 16:00:00 (CEST)Leuchtturm Alte Weser, Allemagne (10124): Vitesse du vent & gusts: 16.10.2018 16:00:00 - 22.10.2018 16:00:00 (CEST)Leuchtturm Alte Weser, Allemagne (10124): Direction du vent: 16.10.2018 16:00:00 - 22.10.2018 16:00:00 (CEST)Leuchtturm Alte Weser, Allemagne (10124): reduced air pressure: 16.10.2018 16:00:00 - 22.10.2018 16:00:00 (CEST)Leuchtturm Alte Weser, Allemagne (10124): Ensoleillement: 16.10.2018 16:00:00 - 22.10.2018 16:00:00 (CEST)
Date & Time tt [°C] td [°C] ff [km/h] ff [knt] fx [km/h] fx [knt] dd ppp [hPa] sd [min]
22.10.2018 16:00:00 12,1 4,7 43 23 50 27 NW 1031,2 42
22.10.2018 15:00:00 12,4 2,6 40 21 54 29 NW 1030,4 24
22.10.2018 14:00:00 12,2 3,3 40 21 - - NW 1030,8 54
22.10.2018 13:00:00 12,2 3,2 47 25 50 27 NW 1030,7 54
22.10.2018 12:00:00 12,3 3,6 47 25 58 31 NW 1030,2 54
22.10.2018 11:00:00 12,3 6,0 50 27 - - NNW 1029,7 36
22.10.2018 10:00:00 12,7 6,1 43 23 58 31 NNW 1029,0 18
22.10.2018 09:00:00 13,0 6,1 47 25 54 29 NNW 1028,2 0
22.10.2018 08:00:00 12,8 8,7 40 21 - - NNW 1027,3 0
22.10.2018 07:00:00 13,1 7,9 36 19 47 25 NNW 1026,6 0
22.10.2018 06:00:00 13,2 8,7 40 21 47 25 N 1026,0 0
22.10.2018 05:00:00 13,1 9,9 40 21 - - N 1025,2 0
22.10.2018 04:00:00 12,6 12,6 40 21 50 27 N 1024,7 0
22.10.2018 03:00:00 13,7 13,7 29 16 - - W 1024,3 0
22.10.2018 02:00:00 12,3 11,9 32 18 - - WSW 1024,3 0
22.10.2018 01:00:00 12,3 11,3 32 18 - - SW 1024,3 0
22.10.2018 00:00:00 13,3 10,0 32 18 - - SSW 1024,1 0
21.10.2018 23:00:00 13,2 10,1 29 16 - - SSW 1024,3 0
21.10.2018 22:00:00 13,4 10,2 25 14 - - SW 1024,5 0
21.10.2018 21:00:00 13,5 10,0 29 16 - - SW 1025,0 0
21.10.2018 20:00:00 13,7 10,1 29 16 - - SW 1024,9 0
21.10.2018 19:00:00 14,2 10,2 29 16 - - SW 1024,7 0
21.10.2018 18:00:00 14,6 10,6 29 16 - - SW 1024,9 54
21.10.2018 17:00:00 14,7 10,9 29 16 - - SW 1025,1 60
21.10.2018 16:00:00 14,6 11,2 29 16 - - SW 1025,5 36
21.10.2018 15:00:00 14,5 11,3 25 14 - - SW 1026,0 0
21.10.2018 14:00:00 14,1 11,5 29 16 - - SW 1026,4 0
21.10.2018 13:00:00 13,6 11,7 29 16 - - SSW 1026,8 0
21.10.2018 12:00:00 12,8 11,2 25 14 - - SW 1027,2 6
21.10.2018 11:00:00 12,5 10,9 29 16 - - SW 1027,2 6
21.10.2018 10:00:00 12,3 11,1 25 14 - - SW 1027,5 0
21.10.2018 09:00:00 12,7 11,3 25 14 - - SW 1027,6 0
21.10.2018 08:00:00 12,8 11,2 25 14 - - SW 1027,2 0
21.10.2018 07:00:00 12,7 11,6 22 12 - - SW 1027,3 0
21.10.2018 06:00:00 12,8 11,5 25 14 - - WSW 1027,4 0
21.10.2018 05:00:00 12,8 12,0 25 14 - - WSW 1027,7 0
21.10.2018 04:00:00 12,7 12,1 22 12 - - SW 1028,0 0
21.10.2018 03:00:00 12,5 11,5 18 10 - - SW 1028,4 0
21.10.2018 02:00:00 13,0 11,9 18 10 - - WSW 1028,7 0
21.10.2018 01:00:00 14,0 9,9 18 10 - - WNW 1028,8 0
21.10.2018 00:00:00 13,8 9,6 22 12 - - W 1028,5 0
20.10.2018 23:00:00 13,9 10,3 22 12 - - WNW 1028,8 0
20.10.2018 22:00:00 14,1 10,7 18 10 - - WNW 1028,9 0
20.10.2018 21:00:00 13,9 10,9 14 8 - - WNW 1029,2 0
20.10.2018 20:00:00 13,9 10,8 18 10 - - WNW 1029,2 0
20.10.2018 19:00:00 13,8 10,6 18 10 - - WNW 1028,9 0
20.10.2018 18:00:00 13,8 10,4 18 10 - - NW 1028,7 48
20.10.2018 17:00:00 14,0 9,9 29 16 - - NW 1028,8 18
20.10.2018 16:00:00 14,0 10,0 25 14 - - NW 1028,9 54
20.10.2018 15:00:00 14,2 9,7 29 16 - - WNW 1028,8 36
20.10.2018 14:00:00 14,0 9,7 22 12 - - WNW 1028,9 18
20.10.2018 13:00:00 13,3 10,8 29 16 - - W 1028,9 18
20.10.2018 12:00:00 12,1 9,8 36 19 - - WSW 1028,4 42
20.10.2018 11:00:00 11,7 9,6 36 19 - - WSW 1028,1 60
20.10.2018 10:00:00 10,8 7,9 40 21 - - WSW 1027,9 30
20.10.2018 09:00:00 11,1 7,0 32 18 - - WSW 1027,6 0
20.10.2018 08:00:00 10,7 6,6 32 18 - - SW 1027,5 0
20.10.2018 07:00:00 10,7 6,6 36 19 - - WSW 1027,1 0
20.10.2018 06:00:00 10,8 6,4 36 19 - - SW 1026,9 0
20.10.2018 05:00:00 10,7 6,2 32 18 - - WSW 1026,8 0
20.10.2018 04:00:00 10,8 6,3 29 16 - - WSW 1026,8 0
20.10.2018 03:00:00 11,1 6,4 25 14 - - WSW 1026,9 0
20.10.2018 02:00:00 11,1 6,5 22 12 - - SW 1027,0 0
20.10.2018 01:00:00 11,3 5,4 22 12 - - WSW 1027,0 0
20.10.2018 00:00:00 11,5 4,7 18 10 - - SW 1026,9 0
19.10.2018 23:00:00 11,6 4,8 14 8 - - SW 1026,6 0
19.10.2018 22:00:00 11,7 4,6 11 6 - - SW 1026,9 0
19.10.2018 21:00:00 11,6 4,6 7 4 - - SSW 1026,5 0
19.10.2018 20:00:00 11,6 4,5 7 4 - - SSW 1026,5 0
19.10.2018 19:00:00 11,4 4,2 7 4 - - SSW 1025,9 0
19.10.2018 18:00:00 11,5 3,9 7 4 - - SE 1025,6 0
19.10.2018 17:00:00 11,2 4,9 7 4 - - SW 1025,8 0
19.10.2018 16:00:00 11,0 5,1 7 4 - - WSW 1026,0 0
19.10.2018 15:00:00 11,0 4,8 7 4 - - SSW 1026,4 36
19.10.2018 14:00:00 12,0 5,2 11 6 - - SE 1026,7 48
19.10.2018 13:00:00 11,4 4,7 11 6 - - SSE 1026,9 12
19.10.2018 12:00:00 11,1 5,5 14 8 - - SE 1026,9 30
19.10.2018 11:00:00 11,2 4,9 14 8 - - ESE 1027,1 0
19.10.2018 10:00:00 11,1 4,8 11 6 - - E 1026,9 0
19.10.2018 09:00:00 10,8 5,5 11 6 - - ESE 1026,8 6
19.10.2018 08:00:00 10,7 5,7 11 6 - - ESE 1026,6 0
19.10.2018 07:00:00 10,6 5,9 11 6 - - ESE 1026,5 0
19.10.2018 06:00:00 10,5 6,0 11 6 - - E 1026,5 0
19.10.2018 05:00:00 10,7 6,3 14 8 - - E 1026,3 0
19.10.2018 04:00:00 10,9 5,8 18 10 - - ENE 1026,4 0
19.10.2018 03:00:00 11,1 4,4 22 12 - - NE 1026,3 0
19.10.2018 02:00:00 11,3 6,5 22 12 - - NE 1026,6 0
19.10.2018 01:00:00 11,5 5,7 22 12 - - NE 1026,6 0
19.10.2018 00:00:00 11,8 5,5 22 12 - - NNE 1026,9 0
18.10.2018 23:00:00 12,1 5,4 25 14 - - N 1026,9 0
18.10.2018 22:00:00 12,1 5,7 29 16 - - NNE 1026,7 0
18.10.2018 21:00:00 12,2 5,8 25 14 - - N 1026,4 0
18.10.2018 20:00:00 12,3 6,8 25 14 - - N 1026,1 0
18.10.2018 19:00:00 12,4 6,2 32 18 - - N 1025,8 12
18.10.2018 18:00:00 12,5 7,3 32 18 - - N 1025,2 60
18.10.2018 17:00:00 12,8 6,4 36 19 - - N 1025,2 60
18.10.2018 16:00:00 12,9 7,9 32 18 - - N 1025,1 60
18.10.2018 15:00:00 12,9 8,7 36 19 - - N 1024,9 60
18.10.2018 14:00:00 12,8 8,6 36 19 - - N 1024,6 60
18.10.2018 13:00:00 12,6 9,4 40 21 - - N 1024,7 60
18.10.2018 12:00:00 12,5 9,0 36 19 47 25 N 1024,2 60
18.10.2018 11:00:00 12,9 9,4 40 21 - - N 1023,5 30
18.10.2018 10:00:00 12,9 10,0 40 21 - - N 1023,4 0
18.10.2018 09:00:00 13,4 11,8 40 21 47 25 N 1022,6 0
18.10.2018 08:00:00 13,4 13,2 29 16 - - N 1022,1 0
18.10.2018 07:00:00 13,5 13,4 29 16 - - N 1021,4 0
18.10.2018 06:00:00 13,9 13,4 22 12 - - NNW 1021,4 0
18.10.2018 05:00:00 14,6 12,8 18 10 - - NW 1021,3 0
18.10.2018 04:00:00 14,4 12,3 18 10 - - NW 1021,1 0
18.10.2018 03:00:00 14,5 13,3 22 12 - - NNW 1021,0 0
18.10.2018 02:00:00 14,3 13,3 14 8 - - W 1021,0 0
18.10.2018 01:00:00 14,3 12,9 14 8 - - W 1020,9 0
18.10.2018 00:00:00 14,4 13,0 14 8 - - W 1020,8 0
17.10.2018 23:00:00 14,5 14,0 11 6 - - W 1020,7 0
17.10.2018 22:00:00 14,7 13,3 7 4 - - NW 1020,7 0
17.10.2018 21:00:00 14,9 13,2 11 6 - - NW 1020,3 0
17.10.2018 20:00:00 15,1 13,6 11 6 - - NW 1020,0 0
17.10.2018 19:00:00 14,9 14,6 14 8 - - NW 1019,6 0
17.10.2018 18:00:00 14,8 14,8 18 10 - - WNW 1019,3 6
17.10.2018 17:00:00 14,9 14,7 14 8 - - W 1019,1 30
17.10.2018 16:00:00 15,0 14,7 22 12 - - WNW 1018,7 0
17.10.2018 15:00:00 15,2 13,9 25 14 - - W 1018,6 0
17.10.2018 14:00:00 15,9 12,5 18 10 - - W 1018,6 12
17.10.2018 13:00:00 15,9 12,0 14 8 - - SW 1018,5 60
17.10.2018 12:00:00 15,1 11,7 18 10 - - SSW 1018,5 60
17.10.2018 11:00:00 14,8 12,5 22 12 - - SSW 1018,3 54
17.10.2018 10:00:00 14,9 12,4 22 12 - - S 1018,0 0
17.10.2018 09:00:00 15,1 12,4 25 14 - - S 1017,9 0
17.10.2018 08:00:00 14,9 13,2 22 12 - - S 1017,7 0
17.10.2018 07:00:00 15,0 13,1 29 16 - - S 1017,3 0
17.10.2018 06:00:00 15,1 13,3 29 16 - - S 1017,4 0
17.10.2018 05:00:00 15,8 13,3 25 14 - - S 1017,3 0
17.10.2018 04:00:00 16,1 13,3 25 14 - - S 1017,5 0
17.10.2018 03:00:00 15,8 13,5 22 12 - - S 1017,9 0
17.10.2018 02:00:00 16,4 13,7 25 14 - - S 1018,1 0
17.10.2018 01:00:00 16,8 13,8 32 18 - - S 1017,9 0
17.10.2018 00:00:00 18,5 14,0 25 14 - - S 1018,0 0
16.10.2018 23:00:00 18,8 14,3 29 16 - - S 1018,3 0
16.10.2018 22:00:00 19,2 14,5 22 12 - - SSE 1018,4 0
16.10.2018 21:00:00 19,9 14,8 22 12 - - S 1018,5 0
16.10.2018 20:00:00 19,6 15,2 18 10 - - SSE 1018,5 0
16.10.2018 19:00:00 17,9 14,8 14 8 - - SE 1018,6 0
16.10.2018 18:00:00 16,8 14,8 14 8 - - ESE 1018,3 30
16.10.2018 17:00:00 17,8 14,5 7 4 - - ESE 1018,3 60
16.10.2018 16:00:00 17,0 14,1 4 2 - - SSW 1018,1 60

tt = Température de l'air
td = dewpoint
ff = Vitesse du vent
fx = gusts
dd = Direction du vent
ppp = reduced air pressure
sd = Ensoleillement

stations d'obs. à proximité